Time;durP1;ratioP1;P1;durP2;ratioP2;P2;SDS_P1;SDS_P2;PMS_P1;PMS_P2;Temp;Humidity;BMP_temperature;BMP_pressure;BME280_temperature;BME280_humidity;BME280_pressure;Samples;Min_cycle;Max_cycle;Signal;HPM_P1;HPM_P2
2021/06/04 00:01:20;;;;;;;2.55;2.30;;;18.90;84.80;;;;;;5010167;28;20034;-74
2021/06/04 00:03:46;;;;;;;2.70;2.35;;;18.90;84.90;;;;;;5009830;28;20065;-74
2021/06/04 00:06:12;;;;;;;3.72;2.58;;;18.90;85.00;;;;;;4992459;28;20023;-74
2021/06/04 00:08:39;;;;;;;2.90;2.25;;;18.90;85.10;;;;;;5009443;28;20022;-74
2021/06/04 00:11:19;;;;;;;3.60;2.65;;;18.90;85.10;;;;;;5009982;28;20113;-73
2021/06/04 00:13:54;;;;;;;2.88;2.22;;;18.90;85.00;;;;;;5009988;28;20014;-75
2021/06/04 00:16:30;;;;;;;3.65;2.70;;;18.80;85.10;;;;;;5009942;28;20037;-75
2021/06/04 00:18:58;;;;;;;3.28;2.75;;;18.80;85.20;;;;;;5010113;28;20026;-74
2021/06/04 00:21:27;;;;;;;3.67;2.78;;;18.80;85.30;;;;;;5009940;28;20042;-74
2021/06/04 00:23:54;;;;;;;3.78;3.00;;;18.80;85.20;;;;;;5011618;28;20042;-74
2021/06/04 00:26:21;;;;;;;3.47;2.95;;;18.80;85.30;;;;;;5013135;28;20467;-73
2021/06/04 00:28:47;;;;;;;2.95;2.47;;;18.70;85.30;;;;;;5013357;28;20033;-73
2021/06/04 00:31:13;;;;;;;3.97;2.70;;;18.70;85.40;;;;;;5013389;28;20080;-73
2021/06/04 00:33:42;;;;;;;3.97;2.90;;;18.70;85.50;;;;;;5017787;28;20079;-75
2021/06/04 00:36:08;;;;;;;4.25;3.05;;;18.70;85.50;;;;;;5029118;28;20045;-72
2021/06/04 00:38:34;;;;;;;4.22;2.90;;;18.70;85.60;;;;;;5033233;28;20033;-74
2021/06/04 00:41:06;;;;;;;4.65;3.38;;;18.70;85.60;;;;;;5035082;28;20029;-75
2021/06/04 00:43:31;;;;;;;5.03;3.92;;;18.70;85.60;;;;;;5017799;28;20041;-75
2021/06/04 00:45:58;;;;;;;5.30;3.97;;;18.60;85.60;;;;;;5035675;28;20024;-74
2021/06/04 00:48:25;;;;;;;4.40;3.55;;;18.60;85.70;;;;;;5035580;28;20079;-74
2021/06/04 00:51:01;;;;;;;6.20;4.07;;;18.60;85.70;;;;;;5035084;28;20108;-75
2021/06/04 00:53:27;;;;;;;5.88;4.03;;;18.70;85.70;;;;;;5035504;28;20040;-76
2021/06/04 00:55:54;;;;;;;5.10;3.70;;;18.60;85.70;;;;;;5035361;28;20025;-73
2021/06/04 00:58:24;;;;;;;5.28;3.67;;;18.60;85.70;;;;;;5035468;28;20026;-74
2021/06/04 01:00:54;;;;;;;4.90;3.92;;;18.60;85.80;;;;;;5035264;28;20146;-75
2021/06/04 01:03:24;;;;;;;4.43;3.15;;;18.60;85.80;;;;;;5035253;28;20437;-75
2021/06/04 01:05:49;;;;;;;6.47;4.30;;;18.60;85.80;;;;;;5034791;28;20141;-75
2021/06/04 01:08:48;;;;;;;5.03;3.83;;;18.60;85.90;;;;;;5035177;28;20243;-74
2021/06/04 01:11:32;;;;;;;5.63;4.53;;;18.60;85.70;;;;;;5035374;28;20493;-74
2021/06/04 01:14:06;;;;;;;5.78;4.13;;;18.50;85.90;;;;;;5035175;28;20018;-75
2021/06/04 01:17:02;;;;;;;6.45;4.38;;;18.50;86.00;;;;;;5035033;28;20036;-73
2021/06/04 01:19:41;;;;;;;6.60;4.70;;;18.50;86.10;;;;;;5034759;28;20448;-74
2021/06/04 01:22:20;;;;;;;6.10;4.55;;;18.40;86.10;;;;;;5034457;28;20055;-74
2021/06/04 01:24:52;;;;;;;6.43;4.80;;;18.40;86.10;;;;;;5034955;28;20034;-74
2021/06/04 01:27:28;;;;;;;5.35;3.85;;;18.40;86.10;;;;;;5017193;28;20026;-74
2021/06/04 01:30:03;;;;;;;6.45;4.38;;;18.50;86.10;;;;;;5034990;28;20091;-75
2021/06/04 01:32:33;;;;;;;5.35;4.15;;;18.40;86.10;;;;;;5034721;28;20022;-73
2021/06/04 01:35:09;;;;;;;5.50;4.55;;;18.40;86.10;;;;;;5015381;28;20053;-74
2021/06/04 01:37:36;;;;;;;3.78;3.15;;;18.50;86.10;;;;;;5016867;28;20083;-73
2021/06/04 01:40:07;;;;;;;5.55;3.60;;;18.40;86.10;;;;;;5017086;28;20048;-74
2021/06/04 01:42:36;;;;;;;5.57;3.63;;;18.40;86.10;;;;;;5034406;28;20055;-74
2021/06/04 01:45:03;;;;;;;;;;;18.50;86.10;;;;;;5034860;28;20030;-74
2021/06/04 01:47:38;;;;;;;5.20;3.67;;;18.40;85.90;;;;;;5034504;28;19951;-74
2021/06/04 01:50:22;;;;;;;4.75;3.17;;;18.40;86.10;;;;;;5034232;28;20028;-73
2021/06/04 01:52:49;;;;;;;4.85;3.55;;;18.40;86.10;;;;;;5034548;28;20032;-73
2021/06/04 01:55:20;;;;;;;5.28;3.88;;;18.40;86.10;;;;;;5016429;28;20013;-74
2021/06/04 01:58:09;;;;;;;6.63;4.63;;;18.40;86.10;;;;;;5034282;28;20034;-74
2021/06/04 02:00:34;;;;;;;5.33;4.03;;;18.40;86.10;;;;;;5034277;28;20108;-75
2021/06/04 02:03:00;;;;;;;7.70;5.65;;;18.30;86.10;;;;;;5034202;28;20080;-73
2021/06/04 02:05:29;;;;;;;7.05;5.63;;;18.30;86.30;;;;;;5015968;28;20089;-74
2021/06/04 02:07:55;;;;;;;;;;;18.20;86.20;;;;;;5034532;28;20021;-73
2021/06/04 02:10:50;;;;;;;6.95;5.18;;;18.10;86.20;;;;;;5034118;28;19928;-74
2021/06/04 02:13:17;;;;;;;7.28;5.85;;;18.10;86.30;;;;;;5021335;28;20045;-74
2021/06/04 02:15:46;;;;;;;8.88;5.78;;;18.10;86.50;;;;;;5033843;28;20021;-75
2021/06/04 02:18:27;;;;;;;7.50;4.88;;;18.10;86.50;;;;;;5033505;28;20079;-74
2021/06/04 02:21:15;;;;;;;8.18;5.47;;;18.00;86.50;;;;;;5033819;28;20045;-73
2021/06/04 02:23:56;;;;;;;7.85;5.78;;;18.00;86.50;;;;;;5033908;28;20128;-73
2021/06/04 02:26:32;;;;;;;9.85;6.95;;;18.00;86.60;;;;;;5033713;28;20030;-74
2021/06/04 02:29:20;;;;;;;7.70;5.32;;;17.90;86.60;;;;;;5033711;28;20026;-74
2021/06/04 02:32:11;;;;;;;7.38;4.60;;;17.90;86.70;;;;;;5033763;28;20048;-74
2021/06/04 02:34:43;;;;;;;6.90;5.15;;;17.90;86.60;;;;;;4993113;28;20029;-74
2021/06/04 02:37:22;;;;;;;8.02;5.57;;;17.90;86.70;;;;;;5033572;28;20033;-74
2021/06/04 02:39:53;;;;;;;9.07;6.38;;;18.00;86.60;;;;;;5033722;28;20104;-74
2021/06/04 02:42:32;;;;;;;8.23;6.32;;;18.00;86.60;;;;;;5015622;28;20048;-73
2021/06/04 02:45:15;;;;;;;7.53;5.20;;;17.90;86.60;;;;;;5033714;28;20059;-73
2021/06/04 02:47:45;;;;;;;9.32;6.53;;;17.90;86.80;;;;;;5032799;28;20264;-74
2021/06/04 02:50:21;;;;;;;8.43;5.85;;;17.90;86.80;;;;;;5015822;28;20359;-75
2021/06/04 02:52:48;;;;;;;8.15;5.80;;;17.90;86.70;;;;;;5033380;28;20107;-75
2021/06/04 02:55:27;;;;;;;7.68;5.63;;;17.90;86.70;;;;;;5033361;28;20022;-75
2021/06/04 02:57:53;;;;;;;8.85;5.18;;;17.90;86.70;;;;;;5033284;28;20478;-75
2021/06/04 03:00:35;;;;;;;7.93;5.60;;;17.90;86.70;;;;;;5033168;28;20025;-74
2021/06/04 03:03:00;;;;;;;7.63;4.85;;;17.90;86.60;;;;;;5032699;28;20501;-74
2021/06/04 03:05:30;;;;;;;6.95;4.55;;;17.90;86.50;;;;;;5033181;28;20034;-74
2021/06/04 03:07:55;;;;;;;6.93;4.80;;;17.90;86.50;;;;;;5033330;28;20025;-74
2021/06/04 03:10:26;;;;;;;6.40;4.70;;;17.90;86.50;;;;;;5033073;28;20018;-74
2021/06/04 03:12:52;;;;;;;6.35;4.18;;;17.80;86.60;;;;;;5015338;28;20041;-75
2021/06/04 03:15:31;;;;;;;6.32;3.80;;;17.80;86.60;;;;;;5033224;28;20021;-73
2021/06/04 03:17:57;;;;;;;6.30;4.50;;;17.80;86.60;;;;;;5032728;28;20429;-74
2021/06/04 03:20:29;;;;;;;6.53;5.18;;;17.80;86.50;;;;;;5032878;28;20280;-74
2021/06/04 03:22:55;;;;;;;6.32;4.22;;;17.80;86.50;;;;;;5032783;28;20044;-73
2021/06/04 03:25:39;;;;;;;6.65;5.10;;;17.80;86.60;;;;;;5032974;28;20092;-74
2021/06/04 03:28:07;;;;;;;5.53;3.83;;;17.80;86.50;;;;;;5033015;28;20025;-75
2021/06/04 03:30:37;;;;;;;6.18;4.32;;;17.80;86.50;;;;;;5014915;28;20102;-73
2021/06/04 03:33:04;;;;;;;5.82;4.32;;;17.80;86.50;;;;;;5032860;28;20025;-74
2021/06/04 03:35:30;;;;;;;5.50;3.83;;;17.80;86.60;;;;;;5015215;28;20087;-74
2021/06/04 03:37:56;;;;;;;6.32;4.30;;;17.80;86.70;;;;;;5032828;28;20025;-73
2021/06/04 03:40:26;;;;;;;5.95;4.15;;;17.80;86.70;;;;;;5032741;28;20025;-74
2021/06/04 03:42:52;;;;;;;5.47;4.38;;;17.80;86.60;;;;;;5032880;28;20037;-75
2021/06/04 03:45:22;;;;;;;5.60;4.20;;;17.80;86.50;;;;;;5032280;28;20021;-73
2021/06/04 03:47:48;;;;;;;7.00;5.20;;;17.80;86.50;;;;;;5032612;28;20029;-74
2021/06/04 03:50:15;;;;;;;5.18;3.83;;;17.80;86.50;;;;;;5032737;28;20033;-74
2021/06/04 03:52:41;;;;;;;6.18;4.15;;;17.70;86.50;;;;;;5032741;28;20053;-74
2021/06/04 03:55:08;;;;;;;5.43;4.22;;;17.70;86.50;;;;;;5032761;28;20053;-74
2021/06/04 03:57:36;;;;;;;5.63;4.45;;;17.70;86.60;;;;;;5032810;28;20021;-73
2021/06/04 04:00:10;;;;;;;7.22;5.00;;;17.70;86.60;;;;;;5035726;28;20034;-75
2021/06/04 04:02:36;;;;;;;5.68;4.32;;;17.70;86.70;;;;;;5018560;28;20022;-74
2021/06/04 04:05:01;;;;;;;5.75;4.10;;;17.60;86.60;;;;;;5036528;28;20425;-73
2021/06/04 04:07:29;;;;;;;6.38;4.68;;;17.60;86.70;;;;;;5018737;28;20025;-74
2021/06/04 04:09:55;;;;;;;4.40;3.60;;;17.60;86.70;;;;;;5036255;28;20429;-75
2021/06/04 04:12:22;;;;;;;3.88;2.78;;;17.60;86.70;;;;;;5018621;28;20382;-74
2021/06/04 04:14:47;;;;;;;4.85;3.70;;;17.60;86.60;;;;;;5035637;28;20025;-74
2021/06/04 04:17:13;;;;;;;3.58;2.90;;;17.60;86.40;;;;;;5036346;28;20022;-73
2021/06/04 04:19:38;;;;;;;5.15;3.80;;;17.70;86.30;;;;;;5036004;28;20053;-73
2021/06/04 04:22:05;;;;;;;4.57;3.28;;;17.70;86.10;;;;;;5036173;28;20108;-75
2021/06/04 04:24:34;;;;;;;5.25;3.58;;;17.70;86.10;;;;;;5036006;28;20041;-72
2021/06/04 04:27:00;;;;;;;5.43;3.60;;;17.60;86.10;;;;;;5035909;28;20100;-75
2021/06/04 04:29:26;;;;;;;3.53;2.55;;;17.60;86.20;;;;;;5035376;28;20112;-75
2021/06/04 04:31:55;;;;;;;4.53;3.35;;;17.60;86.10;;;;;;5036007;28;20025;-74
2021/06/04 04:34:22;;;;;;;3.88;3.00;;;17.70;85.90;;;;;;5036082;28;20045;-73
2021/06/04 04:36:50;;;;;;;3.38;2.83;;;17.70;85.90;;;;;;5035855;28;20053;-74
2021/06/04 04:39:20;;;;;;;4.30;3.00;;;17.80;85.80;;;;;;5035603;28;20039;-73
2021/06/04 04:41:47;;;;;;;4.97;3.17;;;17.80;85.80;;;;;;5035685;28;20048;-74
2021/06/04 04:44:15;;;;;;;5.28;3.05;;;17.80;85.90;;;;;;5035094;28;20048;-75
2021/06/04 04:46:41;;;;;;;4.35;3.20;;;17.80;85.90;;;;;;5035638;28;20143;-74
2021/06/04 04:49:06;;;;;;;4.43;3.30;;;17.80;85.90;;;;;;5017824;28;20077;-73
2021/06/04 04:51:34;;;;;;;3.78;3.38;;;17.80;85.80;;;;;;5035408;28;20025;-73
2021/06/04 04:54:01;;;;;;;3.92;2.92;;;17.90;85.70;;;;;;5035539;28;20429;-74
2021/06/04 04:56:26;;;;;;;3.90;2.70;;;17.90;85.60;;;;;;5017690;28;20029;-74
2021/06/04 04:58:53;;;;;;;2.95;2.20;;;18.00;85.60;;;;;;5035076;28;20036;-74
2021/06/04 05:01:19;;;;;;;4.45;2.97;;;18.00;85.50;;;;;;5017692;28;20025;-75
2021/06/04 05:03:45;;;;;;;4.10;2.60;;;18.00;85.40;;;;;;5035229;28;20083;-73
2021/06/04 05:06:14;;;;;;;4.57;3.10;;;18.10;85.40;;;;;;5035380;28;20040;-75
2021/06/04 05:08:40;;;;;;;4.20;2.90;;;18.10;85.30;;;;;;5035121;28;20021;-75
2021/06/04 05:11:07;;;;;;;4.05;2.53;;;18.20;85.30;;;;;;5035241;28;20079;-76
2021/06/04 05:13:34;;;;;;;3.08;2.47;;;18.20;85.20;;;;;;5034541;28;20029;-73
2021/06/04 05:16:03;;;;;;;5.05;3.53;;;18.30;85.20;;;;;;5035291;28;20022;-74
2021/06/04 05:18:30;;;;;;;4.03;2.80;;;18.30;85.80;;;;;;5035062;28;20029;-75
2021/06/04 05:20:55;;;;;;;5.32;3.20;;;18.30;85.30;;;;;;5034794;28;20041;-76
2021/06/04 05:23:21;;;;;;;4.60;3.42;;;18.20;85.30;;;;;;5017026;28;20110;-77
2021/06/04 05:25:49;;;;;;;4.85;3.75;;;18.20;85.30;;;;;;5034792;28;20589;-77
2021/06/04 05:28:19;;;;;;;4.53;3.22;;;18.20;85.40;;;;;;5034426;28;20035;-76
2021/06/04 05:30:47;;;;;;;5.28;3.50;;;18.30;85.30;;;;;;5034997;28;20079;-77
2021/06/04 05:33:16;;;;;;;4.28;3.03;;;18.30;85.30;;;;;;5016966;28;20018;-76
2021/06/04 05:35:43;;;;;;;3.80;2.90;;;18.40;85.30;;;;;;5034528;28;20072;-76
2021/06/04 05:38:10;;;;;;;4.40;3.53;;;18.40;85.30;;;;;;5016868;28;20463;-77
2021/06/04 05:40:40;;;;;;;4.78;3.30;;;18.40;85.20;;;;;;5034685;28;20032;-77
2021/06/04 05:43:09;;;;;;;4.65;3.28;;;18.40;85.30;;;;;;5034159;28;20041;-77
2021/06/04 05:45:36;;;;;;;4.65;3.22;;;18.40;85.40;;;;;;5034643;28;20057;-77
2021/06/04 05:48:02;;;;;;;5.95;3.65;;;18.40;85.30;;;;;;5016736;28;20035;-78
2021/06/04 05:50:31;;;;;;;6.05;3.47;;;18.40;85.40;;;;;;5034623;28;20036;-77
2021/06/04 05:52:57;;;;;;;4.57;3.03;;;18.40;85.50;;;;;;5034479;28;20061;-77
2021/06/04 05:55:26;;;;;;;3.65;2.63;;;18.40;85.40;;;;;;5033872;28;20060;-76
2021/06/04 05:57:53;;;;;;;3.92;2.40;;;18.40;85.30;;;;;;5034332;28;20021;-77
2021/06/04 06:00:26;;;;;;;3.63;2.55;;;18.50;85.30;;;;;;5034337;28;20052;-76
2021/06/04 06:02:52;;;;;;;3.10;2.17;;;18.50;85.10;;;;;;5034332;28;20041;-75
2021/06/04 06:05:18;;;;;;;3.83;2.90;;;18.60;85.10;;;;;;5034150;28;20018;-76
2021/06/04 06:07:44;;;;;;;3.72;3.20;;;18.70;84.80;;;;;;5034129;28;20096;-77
2021/06/04 06:10:11;;;;;;;3.20;2.60;;;18.70;84.80;;;;;;5033710;28;20026;-76
2021/06/04 06:12:36;;;;;;;2.90;2.42;;;18.80;84.80;;;;;;5033972;28;20033;-75
2021/06/04 06:15:04;;;;;;;2.67;2.38;;;18.90;84.70;;;;;;5034035;28;20017;-76
2021/06/04 06:17:30;;;;;;;3.38;2.30;;;18.90;84.60;;;;;;5033998;28;20108;-75
2021/06/04 06:19:55;;;;;;;3.85;2.80;;;19.00;84.50;;;;;;5033736;28;20141;-75
2021/06/04 06:22:21;;;;;;;3.45;2.30;;;19.10;84.50;;;;;;5033182;28;20064;-75
2021/06/04 06:24:46;;;;;;;3.83;3.03;;;19.10;84.30;;;;;;5033350;28;20025;-75
2021/06/04 06:27:12;;;;;;;3.30;2.38;;;19.20;84.20;;;;;;5033787;28;20022;-75
2021/06/04 06:29:38;;;;;;;3.45;2.80;;;19.30;84.10;;;;;;5033831;28;20024;-75
2021/06/04 06:32:06;;;;;;;3.78;2.63;;;19.30;83.90;;;;;;5015859;28;20044;-76
2021/06/04 06:34:33;;;;;;;3.67;2.38;;;19.50;83.80;;;;;;5033678;28;20026;-76
2021/06/04 06:36:59;;;;;;;4.35;2.85;;;19.50;83.70;;;;;;5033651;28;20466;-75
2021/06/04 06:39:30;;;;;;;3.67;2.83;;;19.70;83.60;;;;;;5033073;28;20053;-75
2021/06/04 06:41:57;;;;;;;3.97;3.00;;;19.80;83.50;;;;;;5033462;28;20032;-75
2021/06/04 06:44:23;;;;;;;4.50;3.20;;;19.80;83.50;;;;;;5033466;28;20488;-76
2021/06/04 06:46:51;;;;;;;4.78;3.58;;;19.80;83.40;;;;;;5033351;28;20018;-74
2021/06/04 06:49:18;;;;;;;2.95;2.40;;;19.90;83.50;;;;;;5033351;28;20018;-75
2021/06/04 06:51:43;;;;;;;4.15;2.53;;;20.00;83.30;;;;;;5015727;28;20025;-76
2021/06/04 06:54:15;;;;;;;3.92;2.60;;;20.10;83.20;;;;;;5032781;28;20041;-75
2021/06/04 06:56:45;;;;;;;2.45;2.05;;;20.10;83.10;;;;;;5033348;28;20025;-76
2021/06/04 06:59:12;;;;;;;4.45;2.65;;;20.20;83.10;;;;;;5033345;28;20083;-75
2021/06/04 07:01:38;;;;;;;2.97;2.53;;;20.30;83.00;;;;;;5033346;28;20413;-76
2021/06/04 07:04:04;;;;;;;3.75;2.78;;;20.30;83.00;;;;;;5033337;28;20029;-75
2021/06/04 07:06:33;;;;;;;2.20;2.00;;;20.40;83.00;;;;;;5033016;28;20336;-74
2021/06/04 07:09:00;;;;;;;3.97;2.58;;;20.40;83.00;;;;;;5032700;28;20025;-76
2021/06/04 07:11:30;;;;;;;3.40;2.55;;;20.50;83.00;;;;;;5033617;28;20025;-75
2021/06/04 07:13:56;;;;;;;3.75;2.60;;;20.50;82.90;;;;;;5033037;28;20032;-75
2021/06/04 07:16:22;;;;;;;3.22;2.40;;;20.60;82.80;;;;;;5033024;28;20022;-76
2021/06/04 07:18:52;;;;;;;3.00;2.50;;;20.70;82.80;;;;;;5033080;28;20025;-75
2021/06/04 07:21:24;;;;;;;3.00;2.20;;;20.70;82.70;;;;;;5032750;28;20049;-76
2021/06/04 07:23:50;;;;;;;2.90;1.98;;;20.90;82.60;;;;;;5014800;28;20038;-76
2021/06/04 07:26:17;;;;;;;2.58;2.20;;;21.00;82.40;;;;;;5015215;28;20032;-75
2021/06/04 07:28:44;;;;;;;4.18;3.10;;;21.10;82.30;;;;;;5032871;28;20032;-76
2021/06/04 07:31:12;;;;;;;3.30;2.22;;;21.10;82.20;;;;;;5033107;28;20013;-76
2021/06/04 07:33:45;;;;;;;4.13;2.10;;;21.20;82.20;;;;;;5036559;28;20029;-75
2021/06/04 07:36:15;;;;;;;3.22;2.30;;;21.30;82.00;;;;;;5037054;28;20386;-75
2021/06/04 07:38:41;;;;;;;3.28;2.25;;;21.30;82.00;;;;;;5036584;28;20478;-75
2021/06/04 07:41:07;;;;;;;3.53;2.33;;;21.30;81.90;;;;;;5019062;28;20494;-76
2021/06/04 07:43:39;;;;;;;3.40;2.33;;;21.30;82.00;;;;;;5036672;28;20093;-75
2021/06/04 07:46:07;;;;;;;2.30;1.90;;;21.30;81.80;;;;;;5037094;28;20104;-76
2021/06/04 07:48:35;;;;;;;3.35;2.00;;;21.40;81.70;;;;;;5036790;28;20068;-73
2021/06/04 07:51:02;;;;;;;2.00;1.80;;;21.40;81.60;;;;;;5036586;28;20048;-75
2021/06/04 07:53:31;;;;;;;2.85;2.00;;;21.40;81.50;;;;;;5036072;28;20083;-73
2021/06/04 07:55:58;;;;;;;2.65;1.77;;;21.40;81.60;;;;;;5036761;28;20021;-74
2021/06/04 07:58:26;;;;;;;1.63;1.48;;;21.40;81.70;;;;;;5036552;28;20025;-74
2021/06/04 08:00:51;;;;;;;1.83;1.60;;;21.40;81.70;;;;;;5036385;28;20191;-74
2021/06/04 08:03:20;;;;;;;1.60;1.50;;;21.40;81.50;;;;;;5036852;28;20130;-74
2021/06/04 08:05:46;;;;;;;2.38;1.90;;;21.40;81.40;;;;;;5034778;28;20100;-74
2021/06/04 08:08:11;;;;;;;2.58;1.73;;;21.40;81.40;;;;;;5013315;28;20121;-73
2021/06/04 08:10:40;;;;;;;1.45;1.30;;;21.40;81.40;;;;;;5013743;28;20026;-73
2021/06/04 08:13:06;;;;;;;2.53;2.00;;;21.50;81.20;;;;;;4996213;28;20509;-75
2021/06/04 08:15:38;;;;;;;2.08;1.80;;;21.50;81.10;;;;;;5013696;28;20029;-75
2021/06/04 08:18:04;;;;;;;2.05;1.70;;;21.60;81.00;;;;;;5013744;28;20026;-74
2021/06/04 08:20:33;;;;;;;2.45;1.50;;;21.60;81.00;;;;;;4995590;28;20046;-73
2021/06/04 08:23:02;;;;;;;1.58;1.48;;;21.60;80.80;;;;;;4995871;28;20034;-73
2021/06/04 08:25:33;;;;;;;1.60;1.45;;;21.60;80.80;;;;;;5013272;28;20040;-74
2021/06/04 08:27:58;;;;;;;1.80;1.63;;;21.70;80.70;;;;;;5013577;28;20467;-73
2021/06/04 08:30:24;;;;;;;2.53;1.50;;;21.70;80.60;;;;;;5013373;28;20030;-74
2021/06/04 08:32:50;;;;;;;1.73;1.50;;;21.80;80.60;;;;;;5030115;28;20060;-74
2021/06/04 08:35:16;;;;;;;2.15;1.85;;;21.90;80.40;;;;;;5033563;28;20030;-72
2021/06/04 08:37:42;;;;;;;2.33;2.13;;;22.00;80.20;;;;;;5035766;28;20026;-74
2021/06/04 08:40:15;;;;;;;2.90;2.33;;;22.00;80.10;;;;;;5035332;28;20109;-74
2021/06/04 08:42:46;;;;;;;2.80;1.95;;;21.90;80.20;;;;;;5035622;28;20517;-73
2021/06/04 08:45:39;;;;;;;1.58;1.48;;;22.00;80.20;;;;;;5035050;28;20057;-73
2021/06/04 08:48:30;;;;;;;2.58;1.85;;;22.00;80.00;;;;;;5035605;28;20072;-73
2021/06/04 08:51:18;;;;;;;1.88;1.63;;;22.00;80.10;;;;;;5035199;28;20100;-74
2021/06/04 08:54:17;;;;;;;1.88;1.40;;;21.90;80.20;;;;;;5035688;28;20462;-73
2021/06/04 08:57:21;;;;;;;2.25;1.70;;;21.90;80.20;;;;;;5035455;28;20029;-73
2021/06/04 08:59:47;;;;;;;2.25;1.60;;;22.10;80.00;;;;;;5035359;28;20036;-73
2021/06/04 09:02:21;;;;;;;2.65;1.73;;;22.10;79.90;;;;;;5035421;28;20025;-75
2021/06/04 09:04:50;;;;;;;2.05;1.38;;;22.10;79.70;;;;;;5034906;28;20030;-74
2021/06/04 09:07:22;;;;;;;1.63;1.52;;;22.20;79.70;;;;;;5035307;28;20030;-73
2021/06/04 09:10:02;;;;;;;1.40;1.30;;;22.30;79.50;;;;;;5034997;28;20057;-73
2021/06/04 09:12:51;;;;;;;1.92;1.65;;;22.40;79.30;;;;;;5033489;28;20022;-74
2021/06/04 09:15:27;;;;;;;;;;;22.50;79.00;;;;;;5015606;28;20076;-74
2021/06/04 09:17:58;;;;;;;1.63;1.42;;;22.60;79.10;;;;;;5014824;28;19952;-73
2021/06/04 09:20:53;;;;;;;2.33;1.60;;;22.90;78.70;;;;;;5014387;28;20503;-72
2021/06/04 09:23:26;;;;;;;1.65;1.55;;;23.10;78.40;;;;;;5015062;28;20040;-73
2021/06/04 09:25:52;;;;;;;1.33;1.20;;;23.10;78.40;;;;;;5015599;28;20485;-74
2021/06/04 09:28:23;;;;;;;1.73;1.60;;;23.20;78.30;;;;;;5015120;28;20104;-73
2021/06/04 09:30:52;;;;;;;1.73;1.40;;;23.40;78.20;;;;;;5014996;28;20117;-74
2021/06/04 09:33:17;;;;;;;2.45;1.80;;;23.40;78.00;;;;;;5014521;28;20497;-73
2021/06/04 09:36:01;;;;;;;2.03;1.58;;;23.50;78.10;;;;;;5014981;28;20034;-74
2021/06/04 09:38:40;;;;;;;2.25;1.70;;;23.40;78.20;;;;;;5015037;28;20125;-74
2021/06/04 09:41:27;;;;;;;1.80;1.67;;;23.40;78.30;;;;;;5013628;28;20390;-74
2021/06/04 09:44:22;;;;;;;2.00;1.80;;;23.50;78.30;;;;;;4997238;28;20068;-73
2021/06/04 09:47:05;;;;;;;1.65;1.48;;;23.70;78.10;;;;;;5014723;28;20108;-73
2021/06/04 09:49:46;;;;;;;1.52;1.42;;;23.80;77.90;;;;;;5014407;28;20037;-73
2021/06/04 09:52:23;;;;;;;1.52;1.42;;;23.90;77.80;;;;;;5013430;28;20033;-76
2021/06/04 09:55:11;;;;;;;1.52;1.42;;;23.90;77.80;;;;;;5014377;28;20034;-74
2021/06/04 09:57:54;;;;;;;1.70;1.33;;;24.00;77.80;;;;;;4996602;28;20079;-73
2021/06/04 10:00:25;;;;;;;1.30;1.20;;;24.10;77.60;;;;;;5014524;28;20458;-73
2021/06/04 10:03:04;;;;;;;1.20;1.10;;;24.20;78.10;;;;;;5013916;28;20501;-74
2021/06/04 10:05:32;;;;;;;1.60;1.50;;;24.30;77.40;;;;;;5014454;28;20105;-73
2021/06/04 10:08:14;;;;;;;1.10;1.00;;;24.30;77.40;;;;;;5014274;28;20032;-75
2021/06/04 10:10:43;;;;;;;1.02;1.02;;;24.30;77.30;;;;;;5014339;28;20033;-74
2021/06/04 10:13:52;;;;;;;1.88;1.30;;;24.30;77.20;;;;;;4996526;28;20041;-75
2021/06/04 10:19:18;;;;;;;2.03;1.50;;;24.40;77.20;;;;;;5014325;28;20040;-74
2021/06/04 10:21:43;;;;;;;2.03;1.80;;;24.40;77.30;;;;;;5013960;28;20058;-75
2021/06/04 10:24:26;;;;;;;2.13;1.63;;;24.40;77.20;;;;;;4996359;28;20034;-75
2021/06/04 10:26:56;;;;;;;1.38;1.27;;;24.50;77.10;;;;;;5014279;28;20037;-75
2021/06/04 10:29:22;;;;;;;1.27;1.20;;;24.60;77.00;;;;;;5014081;28;20029;-75
2021/06/04 10:32:31;;;;;;;2.30;1.63;;;24.80;76.70;;;;;;5013398;28;20017;-72
2021/06/04 10:35:06;;;;;;;1.70;1.40;;;25.00;76.50;;;;;;4953446;29;20472;-73
2021/06/04 10:37:50;;;;;;;1.77;1.65;;;25.10;76.30;;;;;;4953605;28;20114;-78
2021/06/04 10:40:51;;;;;;;1.38;1.27;;;25.30;76.00;;;;;;4953488;28;20436;-77
2021/06/04 10:43:51;;;;;;;1.85;1.30;;;25.30;75.90;;;;;;4953262;29;20083;-75
2021/06/04 10:46:54;;;;;;;1.48;1.38;;;25.60;75.70;;;;;;4914482;29;20044;-76
2021/06/04 10:50:03;;;;;;;1.63;1.52;;;25.70;75.40;;;;;;4914903;29;20032;-77
2021/06/04 10:52:44;;;;;;;1.60;1.50;;;25.90;75.40;;;;;;4915576;29;20040;-75
2021/06/04 10:55:18;;;;;;;1.63;1.45;;;25.90;74.90;;;;;;4914980;29;20044;-75
2021/06/04 10:57:55;;;;;;;1.92;1.23;;;25.90;75.00;;;;;;4914937;29;20031;-75
2021/06/04 11:00:26;;;;;;;1.35;1.25;;;26.00;74.70;;;;;;4914412;29;20044;-76
2021/06/04 11:03:20;;;;;;;1.98;1.60;;;26.00;74.80;;;;;;4914968;29;20044;-75
2021/06/04 11:05:50;;;;;;;2.20;2.00;;;25.90;74.60;;;;;;4946661;28;20036;-76
2021/06/04 11:08:49;;;;;;;1.95;1.70;;;25.60;75.00;;;;;;4972101;28;20225;-74
2021/06/04 11:11:36;;;;;;;3.08;2.25;;;25.50;75.00;;;;;;4972255;28;20112;-75
2021/06/04 11:14:38;;;;;;;2.08;1.65;;;25.60;75.20;;;;;;4972025;28;20120;-78
2021/06/04 11:17:20;;;;;;;1.40;1.30;;;25.70;74.70;;;;;;4972286;28;20035;-77
2021/06/04 11:19:54;;;;;;;1.50;1.40;;;26.00;74.50;;;;;;4972149;28;20089;-77
2021/06/04 11:22:28;;;;;;;1.50;1.40;;;26.50;73.60;;;;;;5000269;28;20430;-76
2021/06/04 11:24:57;;;;;;;1.38;1.27;;;26.90;73.20;;;;;;5013056;28;20042;-76
2021/06/04 11:27:28;;;;;;;2.03;1.83;;;27.60;72.20;;;;;;5013199;28;20050;-77
2021/06/04 11:29:55;;;;;;;1.67;1.42;;;28.00;71.40;;;;;;5012712;28;20744;-77
2021/06/04 11:32:29;;;;;;;1.20;1.20;;;28.50;70.80;;;;;;5013123;28;20030;-75
2021/06/04 11:35:18;;;;;;;1.88;1.60;;;28.50;70.40;;;;;;5011653;28;20356;-75
2021/06/04 11:38:01;;;;;;;1.50;1.40;;;28.20;71.00;;;;;;5013324;28;20380;-75
2021/06/04 11:40:31;;;;;;;1.48;1.30;;;28.10;71.20;;;;;;5013114;28;20030;-76
2021/06/04 11:43:14;;;;;;;1.60;1.50;;;28.20;71.00;;;;;;5013015;28;20117;-76
2021/06/04 11:45:41;;;;;;;2.10;1.70;;;28.30;70.60;;;;;;5012489;28;20088;-76
2021/06/04 11:48:37;;;;;;;2.00;1.75;;;28.00;70.80;;;;;;5013087;28;20034;-76
2021/06/04 11:51:18;;;;;;;2.28;2.08;;;28.00;71.30;;;;;;5013097;28;20101;-76
2021/06/04 11:53:46;;;;;;;2.28;2.08;;;28.50;70.50;;;;;;5013220;28;20026;-77
2021/06/04 11:57:00;;;;;;;2.05;1.85;;;28.80;69.80;;;;;;5013033;28;20022;-76
2021/06/04 11:59:46;;;;;;;1.60;1.50;;;28.90;69.40;;;;;;4989934;28;20041;-76
2021/06/04 12:02:30;;;;;;;2.03;1.80;;;28.60;70.10;;;;;;5012864;28;20033;-77
2021/06/04 12:05:24;;;;;;;1.70;1.60;;;28.50;70.30;;;;;;5012859;28;20390;-76
2021/06/04 12:08:18;;;;;;;1.73;1.30;;;28.40;70.80;;;;;;5010920;28;20038;-76
2021/06/04 12:10:46;;;;;;;1.30;1.20;;;28.30;70.70;;;;;;5012778;28;20022;-75
2021/06/04 12:13:42;;;;;;;1.40;1.30;;;28.20;71.00;;;;;;5012521;28;20026;-77
2021/06/04 12:16:35;;;;;;;1.50;1.40;;;28.20;70.80;;;;;;5012767;28;20029;-76
2021/06/04 12:19:04;;;;;;;1.23;1.20;;;28.30;70.70;;;;;;4990895;28;20076;-76
2021/06/04 12:21:39;;;;;;;1.45;1.35;;;28.40;70.60;;;;;;5016235;28;20506;-77
2021/06/04 12:24:09;;;;;;;1.50;1.40;;;28.40;70.40;;;;;;5016240;28;20045;-76
2021/06/04 12:27:07;;;;;;;1.55;1.45;;;28.40;70.40;;;;;;5016265;28;20022;-76
2021/06/04 12:29:43;;;;;;;;;;;28.50;70.10;;;;;;4956170;29;20039;-75
2021/06/04 12:32:10;;;;;;;1.70;1.60;;;28.40;70.80;;;;;;4955821;28;19998;-75
2021/06/04 12:34:36;;;;;;;1.20;1.10;;;28.20;70.60;;;;;;4955710;29;20118;-76
2021/06/04 12:37:10;;;;;;;1.20;1.10;;;27.90;70.90;;;;;;4955607;29;20032;-76
2021/06/04 12:39:38;;;;;;;1.73;1.25;;;27.70;71.40;;;;;;4955450;29;20150;-75
2021/06/04 12:42:09;;;;;;;1.10;1.10;;;27.40;71.50;;;;;;4955070;28;20591;-75
2021/06/04 12:44:36;;;;;;;1.63;1.52;;;27.20;71.80;;;;;;4955616;29;20062;-77
2021/06/04 12:47:04;;;;;;;1.52;1.42;;;27.20;71.90;;;;;;4955376;28;20043;-76
2021/06/04 12:49:30;;;;;;;1.70;1.40;;;27.20;71.90;;;;;;4955473;29;20151;-76
2021/06/04 12:51:55;;;;;;;1.40;1.30;;;27.20;71.90;;;;;;4955262;28;20102;-75
2021/06/04 12:54:25;;;;;;;1.20;1.10;;;27.20;71.80;;;;;;4939104;29;20047;-77
2021/06/04 12:56:59;;;;;;;1.58;1.48;;;27.60;71.30;;;;;;4954910;29;20118;-75
2021/06/04 12:59:30;;;;;;;1.48;1.25;;;28.40;69.70;;;;;;4955126;29;20500;-77
2021/06/04 13:02:17;;;;;;;1.30;1.20;;;29.30;68.30;;;;;;4938947;28;20027;-76
2021/06/04 13:04:46;;;;;;;1.50;1.40;;;30.10;67.00;;;;;;4955065;28;20538;-76
2021/06/04 13:07:23;;;;;;;1.33;1.23;;;30.40;66.40;;;;;;5002002;28;20088;-77
2021/06/04 13:10:21;;;;;;;1.95;0.90;;;30.80;66.10;;;;;;5015448;28;20037;-76
2021/06/04 13:12:48;;;;;;;1.37;1.27;;;31.50;65.90;;;;;;5015378;28;20061;-75
2021/06/04 13:15:14;;;;;;;1.60;1.50;;;32.10;64.80;;;;;;4997662;28;20022;-75
2021/06/04 13:17:40;;;;;;;1.35;1.25;;;32.00;64.70;;;;;;5015154;28;20080;-76
2021/06/04 13:20:05;;;;;;;1.52;1.42;;;31.30;65.60;;;;;;5015074;28;20042;-76